createdAt,value
2019-02-06T00:00:26.542Z,80.28
2019-02-06T00:01:22.361Z,80.24
2019-02-06T00:02:21.352Z,80.28
2019-02-06T00:03:21.357Z,79.93
2019-02-06T00:04:21.329Z,80.18
2019-02-06T00:05:21.319Z,80.38
2019-02-06T00:06:21.304Z,79.93
2019-02-06T00:07:21.295Z,80.04
2019-02-06T00:08:21.285Z,80.59
2019-02-06T00:09:21.274Z,80.18
2019-02-06T00:10:21.262Z,79.93
2019-02-06T00:11:21.266Z,80.14
2019-02-06T00:12:21.240Z,79.51
2019-02-06T00:13:39.378Z,79.51
2019-02-06T00:15:03.291Z,79.61
2019-02-06T00:16:03.283Z,79.76
2019-02-06T00:17:03.283Z,80.07
2019-02-06T00:18:03.234Z,79.55
2019-02-06T00:19:03.225Z,79.65
2019-02-06T00:20:03.213Z,79.55
2019-02-06T00:21:03.212Z,79.55
2019-02-06T00:22:03.193Z,79.76
2019-02-06T00:23:03.206Z,79.97
2019-02-06T00:24:03.168Z,79.97
2019-02-06T00:25:03.157Z,80.07
2019-02-06T00:26:03.159Z,79.55
2019-02-06T00:27:03.137Z,79.76
2019-02-06T00:28:03.123Z,79.41
2019-02-06T00:29:03.112Z,79.44
2019-02-06T00:30:03.101Z,79.24
2019-02-06T00:31:03.088Z,79.97
2019-02-06T00:32:03.081Z,79.44
2019-02-06T00:33:03.068Z,80.18
2019-02-06T00:34:03.056Z,80.07
2019-02-06T00:35:03.051Z,79.86
2019-02-06T00:36:03.034Z,79.61
2019-02-06T00:37:03.024Z,79.34
2019-02-06T00:38:05.332Z,79.55
2019-02-06T00:39:03.005Z,79.65
2019-02-06T00:40:02.990Z,79.24
2019-02-06T00:41:02.978Z,79.13
2019-02-06T00:42:02.970Z,78.92
2019-02-06T00:43:02.961Z,78.92
2019-02-06T00:44:02.943Z,79.03
2019-02-06T00:45:02.936Z,79.13
2019-02-06T00:46:02.925Z,79.24
2019-02-06T00:47:02.913Z,78.92
2019-02-06T00:48:02.900Z,78.92
2019-02-06T00:49:02.890Z,78.82
2019-02-06T00:50:02.878Z,79.03
2019-02-06T00:51:02.868Z,78.72
2019-02-06T00:52:02.857Z,79.13
2019-02-06T00:53:02.848Z,79.13
2019-02-06T00:54:02.834Z,79.97
2019-02-06T00:55:02.826Z,79.61
2019-02-06T00:56:02.812Z,79.76
2019-02-06T00:57:02.801Z,79.24
2019-02-06T00:58:02.790Z,79.03
2019-02-06T00:59:02.781Z,78.82
2019-02-06T01:00:02.774Z,79.03
2019-02-06T01:01:02.777Z,79.03
2019-02-06T01:02:02.749Z,79.65
2019-02-06T01:03:02.737Z,79.55
2019-02-06T01:04:02.726Z,79.03
2019-02-06T01:05:02.712Z,79.13
2019-02-06T01:06:02.703Z,79.13
2019-02-06T01:07:02.691Z,79.13
2019-02-06T01:08:02.680Z,78.30
2019-02-06T01:09:02.669Z,78.92
2019-02-06T01:10:02.656Z,79.24
2019-02-06T01:11:02.667Z,78.72
2019-02-06T01:12:02.638Z,78.82
2019-02-06T01:13:02.623Z,79.03
2019-02-06T01:14:02.612Z,78.30
2019-02-06T01:15:02.604Z,78.30
2019-02-06T01:16:02.589Z,78.41
2019-02-06T01:17:02.628Z,78.72
2019-02-06T01:18:02.568Z,78.51
2019-02-06T01:19:02.558Z,79.03
2019-02-06T01:20:02.545Z,79.03
2019-02-06T01:21:02.537Z,78.92
2019-02-06T01:22:02.527Z,79.03
2019-02-06T01:23:02.512Z,78.82
2019-02-06T01:24:02.520Z,78.51
2019-02-06T01:25:02.490Z,78.30
2019-02-06T01:26:02.479Z,78.61
2019-02-06T01:27:02.469Z,78.72
2019-02-06T01:28:02.457Z,78.82
2019-02-06T01:29:02.446Z,78.20
2019-02-06T01:30:02.437Z,78.20
2019-02-06T01:31:02.425Z,78.09
2019-02-06T01:32:02.413Z,78.09
2019-02-06T01:33:02.404Z,78.20
2019-02-06T01:34:02.390Z,78.30
2019-02-06T01:35:02.381Z,78.30
2019-02-06T01:36:02.368Z,78.09
2019-02-06T01:37:02.358Z,77.99
2019-02-06T01:38:02.364Z,77.99
2019-02-06T01:39:02.442Z,77.99
2019-02-06T01:40:02.327Z,78.51
2019-02-06T01:41:02.315Z,78.30
2019-02-06T01:42:02.301Z,78.20
2019-02-06T01:43:02.289Z,78.30
2019-02-06T01:44:02.285Z,78.20
2019-02-06T01:45:02.270Z,78.30
2019-02-06T01:46:02.258Z,77.99
2019-02-06T01:47:02.254Z,77.78
2019-02-06T01:48:02.233Z,77.99
2019-02-06T01:49:02.225Z,78.20
2019-02-06T01:50:02.213Z,78.30
2019-02-06T01:51:02.203Z,78.09
2019-02-06T01:52:02.204Z,78.09
2019-02-06T01:53:02.180Z,77.68
2019-02-06T01:54:02.172Z,77.06
2019-02-06T01:55:02.158Z,76.99
2019-02-06T01:56:02.148Z,76.75
2019-02-06T01:57:02.136Z,77.68
2019-02-06T01:58:02.162Z,77.78
2019-02-06T01:59:02.120Z,78.09
2019-02-06T02:00:02.103Z,77.58
2019-02-06T02:01:02.093Z,77.68
2019-02-06T02:02:02.079Z,77.99
2019-02-06T02:03:02.068Z,77.68
2019-02-06T02:04:02.058Z,76.68
2019-02-06T02:05:02.058Z,77.26
2019-02-06T02:06:02.865Z,77.37
2019-02-06T02:07:02.026Z,76.95
2019-02-06T02:08:02.020Z,77.37
2019-02-06T02:09:02.002Z,77.16
2019-02-06T02:10:01.994Z,76.95
2019-02-06T02:11:01.982Z,77.06
2019-02-06T02:12:01.969Z,77.47
2019-02-06T02:13:01.960Z,77.78
2019-02-06T02:14:01.950Z,77.58
2019-02-06T02:15:01.938Z,77.68
2019-02-06T02:16:01.925Z,76.95
2019-02-06T02:17:01.912Z,77.06
2019-02-06T02:18:01.917Z,76.75
2019-02-06T02:19:01.891Z,76.95
2019-02-06T02:20:01.886Z,77.26
2019-02-06T02:21:01.868Z,77.06
2019-02-06T02:22:01.873Z,77.37
2019-02-06T02:23:01.847Z,77.26
2019-02-06T02:24:01.848Z,77.26
2019-02-06T02:25:01.846Z,77.26
2019-02-06T02:26:01.815Z,77.16
2019-02-06T02:27:01.803Z,76.95
2019-02-06T02:28:01.792Z,77.30
2019-02-06T02:29:01.780Z,76.99
2019-02-06T02:30:01.777Z,76.99
2019-02-06T02:31:01.758Z,77.09
2019-02-06T02:32:01.761Z,77.30
2019-02-06T02:33:01.737Z,77.09
2019-02-06T02:34:01.726Z,76.78
2019-02-06T02:35:01.717Z,77.72
2019-02-06T02:36:14.303Z,77.72
2019-02-06T02:37:02.701Z,77.47
2019-02-06T02:38:01.680Z,78.13
2019-02-06T02:39:01.671Z,77.92
2019-02-06T02:40:01.675Z,77.72
2019-02-06T02:41:01.651Z,77.61
2019-02-06T02:42:01.636Z,77.89
2019-02-06T02:43:01.626Z,77.58
2019-02-06T02:44:01.617Z,77.72
2019-02-06T02:45:01.606Z,76.99
2019-02-06T02:46:01.591Z,77.16
2019-02-06T02:47:01.582Z,77.16
2019-02-06T02:48:01.570Z,77.26
2019-02-06T02:49:01.558Z,77.37
2019-02-06T02:50:01.564Z,77.16
2019-02-06T02:51:01.541Z,75.95
2019-02-06T02:52:01.529Z,75.71
2019-02-06T02:53:01.512Z,76.06
2019-02-06T02:54:01.503Z,75.54
2019-02-06T02:55:01.492Z,76.47
2019-02-06T02:56:01.483Z,75.50
2019-02-06T02:57:01.470Z,76.47
2019-02-06T02:58:01.458Z,76.75
2019-02-06T02:59:01.448Z,76.85
2019-02-06T03:00:01.440Z,76.85
2019-02-06T03:01:01.426Z,77.06
2019-02-06T03:02:01.415Z,76.95
2019-02-06T03:03:01.404Z,76.85
2019-02-06T03:04:01.394Z,76.23
2019-02-06T03:05:01.383Z,75.85
2019-02-06T03:06:01.370Z,75.92
2019-02-06T03:07:01.357Z,75.81
2019-02-06T03:08:01.350Z,76.02
2019-02-06T03:09:01.354Z,76.43
2019-02-06T03:10:01.325Z,75.64
2019-02-06T03:11:01.315Z,75.60
2019-02-06T03:12:01.304Z,75.40
2019-02-06T03:13:01.295Z,75.81
2019-02-06T03:14:01.288Z,75.81
2019-02-06T03:15:01.270Z,75.71
2019-02-06T03:16:01.261Z,75.60
2019-02-06T03:17:03.398Z,75.81
2019-02-06T03:18:01.236Z,75.40
2019-02-06T03:19:01.224Z,75.19
2019-02-06T03:20:01.222Z,74.57
2019-02-06T03:21:01.205Z,74.15
2019-02-06T03:22:01.196Z,74.15
2019-02-06T03:23:01.182Z,74.36
2019-02-06T03:24:01.172Z,74.05
2019-02-06T03:25:01.169Z,74.15
2019-02-06T03:26:01.150Z,74.57
2019-02-06T03:27:01.162Z,73.74
2019-02-06T03:28:01.125Z,73.84
2019-02-06T03:29:01.113Z,73.32
2019-02-06T03:30:01.116Z,73.63
2019-02-06T03:31:01.098Z,74.15
2019-02-06T03:32:01.095Z,73.43
2019-02-06T03:33:01.072Z,73.77
2019-02-06T03:34:01.064Z,72.90
2019-02-06T03:35:01.052Z,73.00
2019-02-06T03:36:01.047Z,73.63
2019-02-06T03:37:01.034Z,73.43
2019-02-06T03:38:01.023Z,73.32
2019-02-06T03:39:01.006Z,73.84
2019-02-06T03:40:00.996Z,73.74
2019-02-06T03:41:00.980Z,73.74
2019-02-06T03:42:00.974Z,73.74
2019-02-06T03:43:00.964Z,73.74
2019-02-06T03:44:00.965Z,73.43
2019-02-06T03:45:00.938Z,74.15
2019-02-06T03:46:00.927Z,73.94
2019-02-06T03:47:00.940Z,73.63
2019-02-06T03:48:00.957Z,74.05
2019-02-06T03:49:00.975Z,73.84
2019-02-06T03:50:01.009Z,73.94
2019-02-06T03:51:00.872Z,73.74
2019-02-06T03:52:00.858Z,73.84
2019-02-06T03:53:00.851Z,74.36
2019-02-06T03:54:00.837Z,73.32
2019-02-06T03:55:00.850Z,73.49
2019-02-06T03:56:00.817Z,72.80
2019-02-06T03:57:00.804Z,72.59
2019-02-06T03:58:00.793Z,73.53
2019-02-06T03:59:00.784Z,73.43
2019-02-06T04:00:00.770Z,73.63
2019-02-06T04:01:00.765Z,72.80
2019-02-06T04:02:00.755Z,73.22
2019-02-06T04:03:00.737Z,72.80
2019-02-06T04:04:00.729Z,74.05
2019-02-06T04:05:00.718Z,73.43
2019-02-06T04:06:00.719Z,74.15
2019-02-06T04:07:01.016Z,73.94
2019-02-06T04:08:00.690Z,73.94
2019-02-06T04:09:00.672Z,74.46
2019-02-06T04:10:00.676Z,74.57
2019-02-06T04:11:00.647Z,74.26
2019-02-06T04:12:00.639Z,73.94
2019-02-06T04:13:00.632Z,73.74
2019-02-06T04:14:00.615Z,73.60
2019-02-06T04:15:00.608Z,73.43
2019-02-06T04:16:00.597Z,73.43
2019-02-06T04:17:00.581Z,73.74
2019-02-06T04:18:00.572Z,73.94
2019-02-06T04:19:00.561Z,74.26
2019-02-06T04:20:00.547Z,73.74
2019-02-06T04:21:00.545Z,73.84
2019-02-06T04:22:00.525Z,73.43
2019-02-06T04:23:00.527Z,73.94
2019-02-06T04:24:00.509Z,73.32
2019-02-06T04:25:00.492Z,73.32
2019-02-06T04:26:00.482Z,73.74
2019-02-06T04:27:00.471Z,73.53
2019-02-06T04:28:00.461Z,74.05
2019-02-06T04:29:00.453Z,74.36
2019-02-06T04:30:00.438Z,74.67
2019-02-06T04:31:00.431Z,74.88
2019-02-06T04:32:00.419Z,74.26
2019-02-06T04:33:00.405Z,74.57
2019-02-06T04:34:00.395Z,74.49
2019-02-06T04:35:00.382Z,74.46
2019-02-06T04:36:00.373Z,74.46
2019-02-06T04:37:06.702Z,74.46
2019-02-06T04:38:01.353Z,74.98
2019-02-06T04:39:00.339Z,75.43
2019-02-06T04:40:00.337Z,75.64
2019-02-06T04:41:00.314Z,76.26
2019-02-06T04:42:00.310Z,75.32
2019-02-06T04:43:00.293Z,75.74
2019-02-06T04:44:00.283Z,77.09
2019-02-06T04:45:00.347Z,77.20
2019-02-06T04:46:00.272Z,77.20
2019-02-06T04:47:00.249Z,76.99
2019-02-06T04:48:00.238Z,77.23
2019-02-06T04:49:00.238Z,77.65
2019-02-06T04:50:00.281Z,77.82
2019-02-06T04:51:00.214Z,78.17
2019-02-06T04:52:00.193Z,78.69
2019-02-06T04:53:00.184Z,78.89
2019-02-06T04:54:00.171Z,78.72
2019-02-06T04:55:00.347Z,79.21
2019-02-06T04:56:00.148Z,78.89
2019-02-06T04:57:00.150Z,79.41
2019-02-06T04:58:00.127Z,80.29
2019-02-06T04:59:00.114Z,79.97
2019-02-06T05:00:00.335Z,80.18
2019-02-06T05:01:00.093Z,80.18
2019-02-06T05:02:00.088Z,80.49
2019-02-06T05:03:00.074Z,80.70
2019-02-06T05:04:00.060Z,80.91
2019-02-06T05:05:00.110Z,80.91
2019-02-06T05:06:00.041Z,81.12
2019-02-06T05:07:00.026Z,80.91
2019-02-06T05:08:00.015Z,81.26
2019-02-06T05:09:00.006Z,81.77
2019-02-06T05:09:59.993Z,82.23
2019-02-06T05:10:59.982Z,82.09
2019-02-06T05:11:59.974Z,82.03
2019-02-06T05:12:59.961Z,82.20
2019-02-06T05:13:59.952Z,82.86
2019-02-06T05:14:59.939Z,82.75
2019-02-06T05:15:59.928Z,82.75
2019-02-06T05:16:59.921Z,82.96
2019-02-06T05:17:59.904Z,83.37
2019-02-06T05:18:59.895Z,83.17
2019-02-06T05:19:59.884Z,83.48
2019-02-06T05:20:59.871Z,83.90
2019-02-06T05:21:59.861Z,83.48
2019-02-06T05:22:59.849Z,83.69
2019-02-06T05:23:59.845Z,83.69
2019-02-06T05:24:59.849Z,84.00
2019-02-06T05:25:59.816Z,83.90
2019-02-06T05:26:59.805Z,83.69
2019-02-06T05:27:59.797Z,83.27
2019-02-06T05:28:59.783Z,83.17
2019-02-06T05:29:59.772Z,83.06
2019-02-06T05:30:59.769Z,83.27
2019-02-06T05:31:59.749Z,83.37
2019-02-06T05:32:59.738Z,83.20
2019-02-06T05:33:59.727Z,83.31
2019-02-06T05:34:59.716Z,83.73
2019-02-06T05:35:59.707Z,84.25
2019-02-06T05:36:59.695Z,84.14
2019-02-06T05:37:59.686Z,84.39
2019-02-06T05:38:59.673Z,84.04
2019-02-06T05:39:59.679Z,84.39
2019-02-06T05:40:59.652Z,84.08
2019-02-06T05:41:59.638Z,84.50
2019-02-06T05:42:59.629Z,84.60
2019-02-06T05:43:59.625Z,85.12
2019-02-06T05:44:59.607Z,85.02
2019-02-06T05:45:59.603Z,85.12
2019-02-06T05:46:59.583Z,85.12
2019-02-06T05:47:59.578Z,85.22
2019-02-06T05:48:59.571Z,85.12
2019-02-06T05:49:59.555Z,85.43
2019-02-06T05:50:59.581Z,85.47
2019-02-06T05:51:59.528Z,86.30
2019-02-06T05:52:59.517Z,86.10
2019-02-06T05:53:59.507Z,85.89
2019-02-06T05:54:59.497Z,86.87
2019-02-06T05:55:59.483Z,87.45
2019-02-06T05:56:59.475Z,87.14
2019-02-06T05:57:59.461Z,87.35
2019-02-06T05:58:59.454Z,87.24
2019-02-06T05:59:59.445Z,87.24
2019-02-06T06:00:59.431Z,86.93
2019-02-06T06:01:59.425Z,87.04
2019-02-06T06:02:59.443Z,87.07
2019-02-06T06:03:59.399Z,87.35
2019-02-06T06:04:59.385Z,87.81
2019-02-06T06:05:59.378Z,87.55
2019-02-06T06:06:59.364Z,87.18
2019-02-06T06:07:59.359Z,87.04
2019-02-06T06:08:59.346Z,87.24
2019-02-06T06:09:59.329Z,87.04
2019-02-06T06:10:59.320Z,87.14
2019-02-06T06:11:59.321Z,87.39
2019-02-06T06:13:49.840Z,87.35
2019-02-06T06:14:49.827Z,87.35
2019-02-06T06:15:49.814Z,87.04
2019-02-06T06:16:49.812Z,87.04
2019-02-06T06:17:49.795Z,86.97
2019-02-06T06:18:49.783Z,87.07
2019-02-06T06:19:49.769Z,87.04
2019-02-06T06:20:49.770Z,87.18
2019-02-06T06:21:49.748Z,87.14
2019-02-06T06:22:49.748Z,87.18
2019-02-06T06:23:49.750Z,87.14
2019-02-06T06:24:49.720Z,87.18
2019-02-06T06:25:49.703Z,87.49
2019-02-06T06:26:49.692Z,87.39
2019-02-06T06:27:49.831Z,87.28
2019-02-06T06:28:49.671Z,87.81
2019-02-06T06:29:49.662Z,87.70
2019-02-06T06:30:49.666Z,87.91
2019-02-06T06:31:49.638Z,87.84
2019-02-06T06:32:49.638Z,88.01
2019-02-06T06:33:49.614Z,87.84
2019-02-06T06:34:49.603Z,88.01
2019-02-06T06:35:49.598Z,87.70
2019-02-06T06:36:49.586Z,87.84
2019-02-06T06:37:59.805Z,87.81
2019-02-06T06:38:50.558Z,87.84
2019-02-06T06:39:49.549Z,87.91
2019-02-06T06:40:49.541Z,87.95
2019-02-06T06:41:50.009Z,88.26
2019-02-06T06:42:49.515Z,88.16
2019-02-06T06:43:49.509Z,88.16
2019-02-06T06:44:49.493Z,88.89
2019-02-06T06:45:49.485Z,88.47
2019-02-06T06:46:49.468Z,88.85
2019-02-06T06:47:49.459Z,89.20
2019-02-06T06:48:49.462Z,88.16
2019-02-06T06:49:49.435Z,89.10
2019-02-06T06:50:49.430Z,88.99
2019-02-06T06:51:49.416Z,88.89
2019-02-06T06:52:49.406Z,89.10
2019-02-06T06:53:49.390Z,89.20
2019-02-06T06:54:49.379Z,88.57
2019-02-06T06:55:49.369Z,88.78
2019-02-06T06:56:49.357Z,88.99
2019-02-06T06:57:49.344Z,89.10
2019-02-06T06:58:49.333Z,89.10
2019-02-06T06:59:49.322Z,88.57
2019-02-06T07:00:49.314Z,88.37
2019-02-06T07:01:49.366Z,88.37
2019-02-06T07:02:49.912Z,88.37
2019-02-06T07:03:49.281Z,89.20
2019-02-06T07:04:49.268Z,89.20
2019-02-06T07:05:49.259Z,88.89
2019-02-06T07:06:49.247Z,88.89
2019-02-06T07:07:49.239Z,88.68
2019-02-06T07:08:49.229Z,88.89
2019-02-06T07:09:49.223Z,88.64
2019-02-06T07:10:49.202Z,88.57
2019-02-06T07:11:49.191Z,88.43
2019-02-06T07:12:49.177Z,88.01
2019-02-06T07:13:51.453Z,88.70
2019-02-06T07:14:49.156Z,88.70
2019-02-06T07:15:49.147Z,88.18
2019-02-06T07:16:49.134Z,87.55
2019-02-06T07:17:49.124Z,87.14
2019-02-06T07:18:49.111Z,87.24
2019-02-06T07:19:49.103Z,87.35
2019-02-06T07:20:49.107Z,86.93
2019-02-06T07:21:49.079Z,86.37
2019-02-06T07:22:49.067Z,86.58
2019-02-06T07:23:49.057Z,86.47
2019-02-06T07:24:49.044Z,85.74
2019-02-06T07:25:49.037Z,85.53
2019-02-06T07:26:49.024Z,85.71
2019-02-06T07:27:49.040Z,86.16
2019-02-06T07:28:49.001Z,86.27
2019-02-06T07:29:48.988Z,85.60
2019-02-06T07:30:48.984Z,84.66
2019-02-06T07:31:48.968Z,84.83
2019-02-06T07:32:48.957Z,84.42
2019-02-06T07:33:48.945Z,84.63
2019-02-06T07:34:48.935Z,84.21
2019-02-06T07:35:48.924Z,84.04
2019-02-06T07:36:48.916Z,84.11
2019-02-06T07:37:48.907Z,84.21
2019-02-06T07:38:48.891Z,84.21
2019-02-06T07:39:48.879Z,84.11
2019-02-06T07:40:48.869Z,83.90
2019-02-06T07:41:48.868Z,83.90
2019-02-06T07:42:48.846Z,83.69
2019-02-06T07:43:48.835Z,83.69
2019-02-06T07:44:48.823Z,83.94
2019-02-06T07:45:48.811Z,84.31
2019-02-06T07:46:48.815Z,83.90
2019-02-06T07:47:48.790Z,83.37
2019-02-06T07:48:48.785Z,83.37
2019-02-06T07:49:48.767Z,83.27
2019-02-06T07:50:48.760Z,83.58
2019-02-06T07:51:50.526Z,84.04
2019-02-06T07:52:48.735Z,83.83
2019-02-06T07:53:48.731Z,84.14
2019-02-06T07:54:48.718Z,84.04
2019-02-06T07:55:48.702Z,83.58
2019-02-06T07:56:48.691Z,83.62
2019-02-06T07:57:48.751Z,83.27
2019-02-06T07:58:50.761Z,83.58
2019-02-06T07:59:48.662Z,83.23
2019-02-06T08:00:48.648Z,82.92
2019-02-06T08:01:48.636Z,82.05
2019-02-06T08:02:48.627Z,81.63
2019-02-06T08:03:48.614Z,81.29
2019-02-06T08:04:48.603Z,80.87
2019-02-06T08:05:48.597Z,80.77
2019-02-06T08:06:48.579Z,81.18
2019-02-06T08:07:48.568Z,83.78
2019-02-06T08:08:48.557Z,83.64
2019-02-06T08:09:48.613Z,84.37
2019-02-06T08:10:48.542Z,85.61
2019-02-06T08:11:48.526Z,83.43
2019-02-06T08:12:48.515Z,82.87
2019-02-06T08:13:48.503Z,81.04
2019-02-06T08:14:48.495Z,80.73
2019-02-06T08:15:48.479Z,80.00
2019-02-06T08:16:48.469Z,80.52
2019-02-06T08:17:48.457Z,80.69
2019-02-06T08:18:48.446Z,81.11
2019-02-06T08:19:48.436Z,80.28
2019-02-06T08:20:48.424Z,80.00
2019-02-06T08:21:49.772Z,80.42
2019-02-06T08:22:48.408Z,80.07
2019-02-06T08:23:48.392Z,80.49
2019-02-06T08:24:48.383Z,79.93
2019-02-06T08:25:48.383Z,80.04
2019-02-06T08:26:48.360Z,79.10
2019-02-06T08:27:48.349Z,78.41
2019-02-06T08:28:48.336Z,79.61
2019-02-06T08:29:48.325Z,79.20
2019-02-06T08:30:48.313Z,78.16
2019-02-06T08:31:48.303Z,78.27
2019-02-06T08:32:48.292Z,78.65
2019-02-06T08:33:48.284Z,77.92
2019-02-06T08:34:48.269Z,78.65
2019-02-06T08:35:48.258Z,77.02
2019-02-06T08:36:48.247Z,77.23
2019-02-06T08:37:48.235Z,77.95
2019-02-06T08:38:48.809Z,77.30
2019-02-06T08:39:48.218Z,77.20
2019-02-06T08:40:48.234Z,75.85
2019-02-06T08:41:48.195Z,77.33
2019-02-06T08:42:48.188Z,77.20
2019-02-06T08:43:48.168Z,77.09
2019-02-06T08:44:48.158Z,74.91
2019-02-06T08:45:48.318Z,75.81
2019-02-06T08:46:48.135Z,76.81
2019-02-06T08:47:48.133Z,76.50
2019-02-06T08:48:48.115Z,77.75
2019-02-06T08:49:48.114Z,77.09
2019-02-06T08:50:48.096Z,76.78
2019-02-06T08:51:48.081Z,75.33
2019-02-06T08:52:48.071Z,74.50
2019-02-06T08:53:48.059Z,75.26
2019-02-06T08:54:48.110Z,76.61
2019-02-06T08:55:48.046Z,75.23
2019-02-06T08:56:48.027Z,76.29
2019-02-06T08:57:48.013Z,75.36
2019-02-06T08:58:48.006Z,76.29
2019-02-06T08:59:48.004Z,76.19
2019-02-06T09:00:47.982Z,76.29
2019-02-06T09:01:47.972Z,76.09
2019-02-06T09:02:47.959Z,76.29
2019-02-06T09:03:47.947Z,76.57
2019-02-06T09:04:55.454Z,76.06
2019-02-06T09:05:48.923Z,75.78
2019-02-06T09:06:47.917Z,75.46
2019-02-06T09:07:47.904Z,76.61
2019-02-06T09:08:58.999Z,75.95
2019-02-06T09:09:48.882Z,75.46
2019-02-06T09:10:47.869Z,76.19
2019-02-06T09:11:47.862Z,78.78
2019-02-06T09:12:47.974Z,77.61
2019-02-06T09:13:47.836Z,77.33
2019-02-06T09:14:47.827Z,78.55
2019-02-06T09:15:47.816Z,79.13
2019-02-06T09:16:47.811Z,78.47
2019-02-06T09:17:47.794Z,77.47
2019-02-06T09:18:47.783Z,75.67
2019-02-06T09:19:47.771Z,74.43
2019-02-06T09:20:47.758Z,73.49
2019-02-06T09:21:47.749Z,73.63
2019-02-06T09:22:47.744Z,74.22
2019-02-06T09:23:47.741Z,74.46
2019-02-06T09:24:47.718Z,74.15
2019-02-06T09:25:47.710Z,73.70
2019-02-06T09:26:47.696Z,73.70
2019-02-06T09:27:47.686Z,73.18
2019-02-06T09:28:47.672Z,73.60
2019-02-06T09:29:47.661Z,73.70
2019-02-06T09:30:47.647Z,73.18
2019-02-06T09:31:47.636Z,73.28
2019-02-06T09:32:47.626Z,73.18
2019-02-06T09:33:47.616Z,72.77
2019-02-06T09:34:47.603Z,72.53
2019-02-06T09:35:47.597Z,72.25
2019-02-06T09:36:47.581Z,72.25
2019-02-06T09:37:47.573Z,72.32
2019-02-06T09:38:47.561Z,72.11
2019-02-06T09:39:47.551Z,71.77
2019-02-06T09:40:49.489Z,70.42
2019-02-06T09:41:47.526Z,70.81
2019-02-06T09:42:47.514Z,70.29
2019-02-06T09:43:47.504Z,70.70
2019-02-06T09:44:47.493Z,70.70
2019-02-06T09:45:47.484Z,70.29
2019-02-06T09:46:47.473Z,69.67
2019-02-06T09:47:47.460Z,69.56
2019-02-06T09:48:47.452Z,69.46
2019-02-06T09:49:49.809Z,69.84
2019-02-06T09:50:47.431Z,69.53
2019-02-06T09:51:47.415Z,69.04
2019-02-06T09:52:47.405Z,70.39
2019-02-06T09:53:47.391Z,69.87
2019-02-06T09:54:47.381Z,69.43
2019-02-06T09:55:47.370Z,69.53
2019-02-06T09:56:50.506Z,69.40
2019-02-06T09:57:47.355Z,68.88
2019-02-06T09:58:47.337Z,68.95
2019-02-06T09:59:47.325Z,69.50
2019-02-06T10:00:47.320Z,67.40
2019-02-06T10:01:47.302Z,67.12
2019-02-06T10:02:47.294Z,67.61
2019-02-06T10:03:47.288Z,67.09
2019-02-06T10:04:47.278Z,67.09
2019-02-06T10:05:47.259Z,68.57
2019-02-06T10:06:47.250Z,69.19
2019-02-06T10:07:47.242Z,68.36
2019-02-06T10:08:47.232Z,68.46
2019-02-06T10:09:47.215Z,68.88
2019-02-06T10:10:47.232Z,68.88
2019-02-06T10:11:47.196Z,68.46
2019-02-06T10:12:47.192Z,68.95
2019-02-06T10:13:47.169Z,67.61
2019-02-06T10:14:47.162Z,67.37
2019-02-06T10:15:47.151Z,67.16
2019-02-06T10:16:47.136Z,66.88
2019-02-06T10:17:47.126Z,67.19
2019-02-06T10:18:47.116Z,66.99
2019-02-06T10:19:47.107Z,67.54
2019-02-06T10:20:47.091Z,68.15
2019-02-06T10:21:50.376Z,67.64
2019-02-06T10:22:48.067Z,67.71
2019-02-06T10:23:47.061Z,67.50
2019-02-06T10:24:47.046Z,67.50
2019-02-06T10:25:47.039Z,67.19
2019-02-06T10:26:47.024Z,67.71
2019-02-06T10:27:47.013Z,67.40
2019-02-06T10:28:47.002Z,67.54
2019-02-06T10:29:46.990Z,67.43
2019-02-06T10:30:46.981Z,67.85
2019-02-06T10:31:46.974Z,67.22
2019-02-06T10:32:46.959Z,67.22
2019-02-06T10:33:46.946Z,67.19
2019-02-06T10:34:46.937Z,67.22
2019-02-06T10:35:46.926Z,67.19
2019-02-06T10:36:46.921Z,67.19
2019-02-06T10:37:46.903Z,67.19
2019-02-06T10:38:46.891Z,67.61
2019-02-06T10:39:46.881Z,67.19
2019-02-06T10:40:46.926Z,67.19
2019-02-06T10:41:46.857Z,67.40
2019-02-06T10:42:46.848Z,66.99
2019-02-06T10:43:46.834Z,67.40
2019-02-06T10:44:46.822Z,66.99
2019-02-06T10:45:46.816Z,67.50
2019-02-06T10:46:46.803Z,67.37
2019-02-06T10:47:46.796Z,67.16
2019-02-06T10:48:46.780Z,66.64
2019-02-06T10:49:46.767Z,66.82
2019-02-06T10:50:46.757Z,67.13
2019-02-06T10:53:14.214Z,65.89
2019-02-06T10:54:33.347Z,66.00
2019-02-06T10:57:24.164Z,66.51
2019-02-06T10:58:43.297Z,66.30
2019-02-06T11:00:06.190Z,65.79
2019-02-06T11:01:06.176Z,66.10
2019-02-06T11:02:06.168Z,66.61
2019-02-06T11:03:06.159Z,66.20
2019-02-06T11:04:06.161Z,66.51
2019-02-06T11:05:06.134Z,66.82
2019-02-06T11:06:06.123Z,66.41
2019-02-06T11:07:08.221Z,66.38
2019-02-06T11:08:06.103Z,66.20
2019-02-06T11:09:06.094Z,66.27
2019-02-06T11:10:06.082Z,65.24
2019-02-06T11:11:06.067Z,65.24
2019-02-06T11:12:06.058Z,64.93
2019-02-06T11:13:06.051Z,65.14
2019-02-06T11:14:26.691Z,63.90
2019-02-06T11:15:48.077Z,64.31
2019-02-06T11:16:48.058Z,64.21
2019-02-06T11:17:48.048Z,63.59
2019-02-06T11:18:48.042Z,64.31
2019-02-06T11:19:48.029Z,64.11
2019-02-06T11:20:48.013Z,64.21
2019-02-06T11:21:48.004Z,64.21
2019-02-06T11:22:48.009Z,64.00
2019-02-06T11:23:47.981Z,64.83
2019-02-06T11:24:47.973Z,64.00
2019-02-06T11:25:47.962Z,64.31
2019-02-06T11:26:47.951Z,64.42
2019-02-06T11:27:47.939Z,63.69
2019-02-06T11:28:47.927Z,63.69
2019-02-06T11:29:48.489Z,63.49
2019-02-06T11:30:47.908Z,63.69
2019-02-06T11:31:47.891Z,63.79
2019-02-06T11:32:47.883Z,64.42
2019-02-06T11:33:47.870Z,63.90
2019-02-06T11:34:47.860Z,63.46
2019-02-06T11:35:47.856Z,63.04
2019-02-06T11:36:47.838Z,62.74
2019-02-06T11:37:47.826Z,63.39
2019-02-06T11:38:47.815Z,63.35
2019-02-06T11:39:57.710Z,63.39
2019-02-06T11:40:48.799Z,63.18
2019-02-06T11:41:47.784Z,63.25
2019-02-06T11:42:47.769Z,63.28
2019-02-06T11:43:47.759Z,63.56
2019-02-06T11:44:47.748Z,62.35
2019-02-06T11:45:47.741Z,63.59
2019-02-06T11:46:47.730Z,62.94
2019-02-06T11:47:47.722Z,62.53
2019-02-06T11:48:47.707Z,62.53
2019-02-06T11:49:47.693Z,62.43
2019-02-06T11:50:47.682Z,62.53
2019-02-06T11:51:47.673Z,62.22
2019-02-06T11:52:47.662Z,62.40
2019-02-06T11:53:47.648Z,62.29
2019-02-06T11:54:47.640Z,62.22
2019-02-06T11:55:47.629Z,61.98
2019-02-06T11:56:47.615Z,62.22
2019-02-06T11:57:47.607Z,62.50
2019-02-06T11:58:47.597Z,62.50
2019-02-06T11:59:47.585Z,61.98
2019-02-06T12:00:48.616Z,61.47
2019-02-06T12:01:47.561Z,61.57
2019-02-06T12:02:47.548Z,61.68
2019-02-06T12:03:47.550Z,61.98
2019-02-06T12:04:47.532Z,62.40
2019-02-06T12:05:47.523Z,62.71
2019-02-06T12:06:47.506Z,62.92
2019-02-06T12:07:47.495Z,63.25
2019-02-06T12:08:47.485Z,63.15
2019-02-06T12:09:47.478Z,63.56
2019-02-06T12:10:47.465Z,63.12
2019-02-06T12:11:47.455Z,63.87
2019-02-06T12:12:47.439Z,63.87
2019-02-06T12:15:14.916Z,63.18
2019-02-06T12:16:14.928Z,64.31
2019-02-06T12:17:14.907Z,64.11
2019-02-06T12:18:14.877Z,63.49
2019-02-06T12:19:14.879Z,63.10
2019-02-06T12:20:14.852Z,64.03
2019-02-06T12:21:17.820Z,64.21
2019-02-06T12:22:14.833Z,63.82
2019-02-06T12:23:14.830Z,64.03
2019-02-06T12:24:14.875Z,63.21
2019-02-06T12:25:14.798Z,63.72
2019-02-06T12:26:14.789Z,63.42
2019-02-06T12:27:14.775Z,63.62
2019-02-06T12:28:14.764Z,63.82
2019-02-06T12:29:14.814Z,63.72
2019-02-06T12:30:14.763Z,63.42
2019-02-06T12:31:14.731Z,63.51
2019-02-06T12:32:14.724Z,63.72
2019-02-06T12:33:14.711Z,63.62
2019-02-06T12:34:14.703Z,63.82
2019-02-06T12:35:14.695Z,63.21
2019-02-06T12:36:15.849Z,64.14
2019-02-06T12:37:14.663Z,63.51
2019-02-06T12:38:14.659Z,63.49
2019-02-06T12:39:14.643Z,63.62
2019-02-06T12:40:21.622Z,63.90
2019-02-06T12:41:15.624Z,63.79
2019-02-06T12:42:14.610Z,62.97
2019-02-06T12:43:14.599Z,63.51
2019-02-06T12:44:14.587Z,63.51
2019-02-06T12:45:14.577Z,63.42
2019-02-06T12:46:14.563Z,63.21
2019-02-06T12:47:14.555Z,63.49
2019-02-06T12:48:14.547Z,62.87
2019-02-06T12:49:14.742Z,62.97
2019-02-06T12:50:14.521Z,62.97
2019-02-06T12:51:14.512Z,63.69
2019-02-06T12:52:14.500Z,63.18
2019-02-06T12:53:14.492Z,63.28
2019-02-06T12:54:14.488Z,63.28
2019-02-06T12:55:14.468Z,63.49
2019-02-06T12:56:14.454Z,64.00
2019-02-06T12:57:14.456Z,63.18
2019-02-06T12:58:14.437Z,63.49
2019-02-06T12:59:14.427Z,64.11
2019-02-06T13:00:14.431Z,63.49